Search for airport 
image banner adimage banner ad
image banner ad

VICG - Chandigarh

Located in Chandigarh, India

ICAO - VICG, IATA - IXC

Data provided by Airmate  

General information

Coordinates: N30°40'24" E76°47'18"
Elevation is 1030 feet MSL.
 
Rated:
View ratings: [VIEW]


View others Airports in Chandigarh

Operational data

Open for public use
Current time UTC:
Current local time:
Weather
METAR: VICG 122230Z VRB02KT 6000 FEW025 SCT100 26/26 Q1000 NOSIG
TAF: TAF VICG 121530Z 1218/1306 03010KT 6000 FEW025 FEW030TCU SCT090 PROB40 TEMPO 1222/1302 03010KT 2500 TSRABR SCT025 FEW030CB BKN090 BECMG 1304/1305 32012KT 6000 FEW025 FEW030TCU SCT090
View NOTAMs / SUP AIP / TFR affecting this airport [VIEW]
Communications frequencies: [VIEW]

Runways:

RWY identifierQFULength (ft)Width (ft)SurfaceLDA (ft)
11114°9000148ASP
29294°9000148

Airport contact information

Address: Chandigarh India

Satellite view of VICG